| time (UTC) | temp F | wind direction | speed MPH | gust MPH | rain 1hr in | rain 24hr in | rain mn in | humidity % | barometer mb |
| 20260504201107 | 81 | 265 | 10.0 | 19.0 | 0.00 | 0.00 | 0.00 | 34 | 999.1 |
| 20260504195607 | 80 | 277 | 10.0 | 20.0 | 0.00 | 0.00 | 0.00 | 31 | 999.4 |
| 20260504194801 | 81 | 252 | 12.0 | 24.0 | 0.00 | 0.00 | 0.00 | 30 | 999.7 |
| 20260504192605 | 80 | 231 | 11.0 | 20.0 | 0.00 | 0.00 | 0.00 | 31 | 999.8 |
| 20260504191800 | 81 | 224 | 13.0 | 22.0 | 0.00 | 0.00 | 0.00 | 33 | 999.8 |
| 20260504185605 | 80 | 223 | 11.0 | 19.0 | 0.00 | 0.00 | 0.00 | 33 | 999.9 |
| 20260504184106 | 80 | 227 | 11.0 | 24.0 | 0.00 | 0.00 | 0.00 | 33 | 1000.0 |
| 20260504182601 | 80 | 245 | 11.0 | 22.0 | 0.00 | 0.00 | 0.00 | 33 | 1000.1 |
| 20260504181753 | 80 | 232 | 12.0 | 20.0 | 0.00 | 0.00 | 0.00 | 34 | 1000.2 |
| 20260504175551 | 79 | 250 | 13.0 | 23.0 | 0.00 | 0.00 | 0.00 | 36 | 1000.1 |
| 20260504174747 | 79 | 204 | 12.0 | 21.0 | 0.00 | 0.00 | 0.00 | 39 | 1000.0 |
| 20260504172543 | 78 | 224 | 11.0 | 17.0 | 0.00 | 0.00 | 0.00 | 38 | 1000.1 |
| 20260504171037 | 78 | 234 | 13.0 | 20.0 | 0.00 | 0.00 | 0.00 | 40 | 1000.2 |
| 20260504140951 | 65 | 201 | 7.0 | 14.0 | 0.00 | 0.00 | 0.00 | 57 | 1002.2 |
| 20260504080900 | 50 | 196 | 4.0 | 6.0 | 0.00 | 0.00 | 0.00 | 66 | 1005.0 |
| 20260504045324 | 57 | 205 | 3.0 | 5.0 | 0.00 | 0.00 | 0.00 | 46 | 1007.0 |
| 20260504043823 | 57 | 220 | 4.0 | 7.0 | 0.00 | 0.00 | 0.00 | 46 | 1007.1 |
| 20260504043017 | 58 | 202 | 3.0 | 6.0 | 0.00 | 0.00 | 0.00 | 46 | 1007.2 |
| 20260504041520 | 58 | 221 | 4.0 | 6.0 | 0.00 | 0.00 | 0.00 | 45 | 1007.3 |
| 20260504035322 | 58 | 210 | 3.0 | 6.0 | 0.00 | 0.00 | 0.00 | 46 | 1007.4 |
| 20260504034514 | 58 | 211 | 4.0 | 7.0 | 0.00 | 0.00 | 0.00 | 46 | 1007.5 |
| 20260504032322 | 59 | 193 | 3.0 | 5.0 | 0.00 | 0.00 | 0.00 | 45 | 1007.6 |
| 20260504030822 | 60 | 219 | 3.0 | 6.0 | 0.00 | 0.00 | 0.00 | 44 | 1007.5 |
| 20260504025322 | 61 | 219 | 4.0 | 7.0 | 0.00 | 0.00 | 0.00 | 42 | 1007.4 |
| 20260504023822 | 62 | 223 | 4.0 | 7.0 | 0.00 | 0.00 | 0.00 | 41 | 1007.2 |
| 20260504022318 | 62 | 206 | 4.0 | 7.0 | 0.00 | 0.00 | 0.00 | 40 | 1007.2 |
| 20260504020817 | 62 | 227 | 4.0 | 6.0 | 0.00 | 0.00 | 0.00 | 41 | 1007.1 |
| 20260504015315 | 63 | 213 | 3.0 | 5.0 | 0.00 | 0.00 | 0.00 | 38 | 1007.1 |
| 20260504014512 | 64 | 225 | 4.0 | 6.0 | 0.00 | 0.00 | 0.00 | 38 | 1007.0 |
| 20260504012314 | 65 | 212 | 3.0 | 6.0 | 0.00 | 0.00 | 0.00 | 37 | 1006.9 |
| 20260504011504 | 68 | 262 | 2.0 | 6.0 | 0.00 | 0.00 | 0.00 | 34 | 1006.8 |
| 20260504003746 | 70 | 258 | 4.0 | 9.0 | 0.00 | 0.00 | 0.00 | 33 | 1006.6 |
| 20260504002244 | 71 | 265 | 7.0 | 10.0 | 0.00 | 0.00 | 0.00 | 32 | 1006.7 |
| 20260504000744 | 71 | 261 | 8.0 | 15.0 | 0.00 | 0.00 | 0.00 | 31 | 1006.5 |
| 20260503235245 | 72 | 278 | 9.0 | 15.0 | 0.00 | 0.00 | 0.00 | 32 | 1006.4 |
| 20260503234434 | 73 | 267 | 10.0 | 18.0 | 0.00 | 0.00 | 0.00 | 31 | 1006.4 |
| 20260503232237 | 74 | 319 | 11.0 | 19.0 | 0.00 | 0.00 | 0.00 | 29 | 1006.3 |
| 20260503230737 | 74 | 263 | 12.0 | 20.0 | 0.00 | 0.00 | 0.00 | 28 | 1006.3 |
| 20260503225238 | 74 | 271 | 11.0 | 20.0 | 0.00 | 0.00 | 0.00 | 28 | 1006.5 |
| 20260503223711 | 75 | 284 | 11.0 | 20.0 | 0.00 | 0.00 | 0.00 | 29 | 1006.3 |
| 20260503222211 | 75 | 288 | 13.0 | 23.0 | 0.00 | 0.00 | 0.00 | 28 | 1006.3 |
| 20260503220711 | 74 | 219 | 16.0 | 25.0 | 0.00 | 0.00 | 0.00 | 36 | 1006.2 |
| 20260503215206 | 73 | 246 | 16.0 | 26.0 | 0.00 | 0.00 | 0.00 | 38 | 1006.3 |
| 20260503213705 | 73 | 223 | 15.0 | 25.0 | 0.00 | 0.00 | 0.00 | 42 | 1006.4 |
| 20260503212205 | 73 | 240 | 14.0 | 25.0 | 0.00 | 0.00 | 0.00 | 41 | 1006.5 |
| 20260503210704 | 72 | 208 | 16.0 | 28.0 | 0.00 | 0.00 | 0.00 | 41 | 1006.6 |
| 20260503205203 | 72 | 228 | 16.0 | 29.0 | 0.00 | 0.00 | 0.00 | 44 | 1006.8 |
| 20260503203704 | 72 | 223 | 17.0 | 29.0 | 0.00 | 0.00 | 0.00 | 42 | 1007.0 |
| 20260503202904 | 72 | 236 | 16.0 | 29.0 | 0.00 | 0.00 | 0.00 | 41 | 1007.1 |